• Join FlightAware (Why Join?)
  • Login
  • US Flag 
01:14PM EDT


 

Airport Tracker/Info


-or-


 

Live Flight TrackerFlight Track Log ✈ N683FE ✈ 17-Apr-2013 ✈ KIAD - KIND

Flight Track Log - Related Links

Times and Time Zones

All times are in EDT time to prevent confusion due to time zone crossing. See the N683FE flight status page for this flight to view local times or setup timezone preferences in your user account.

Time Position Orientation Groundspeed Altitude Reporting Facility
EDT Latitude Longitude Course Direction KTS MPH feet Rate Location/Type
11:12PM 38.9370 -77.5160 243° Southwest 1,900  Level FlightAware
11:12PM 38.9270 -77.5520 250° West 2,700 300 Climbing FlightAware
11:13PM 38.9190 -77.5980 257° West 4,600 300 Climbing FlightAware
11:13PM 38.9140 -77.6400 261° West 6,900 240 Climbing FlightAware
11:13PM 38.9080 -77.6860 260° West 8,800 180 Climbing FlightAware
11:14PM 38.9060 -77.7100 264° West 9,900 180 Climbing FlightAware
11:15PM 38.9150 -77.7970 278° West 12,800 120 Climbing FlightAware
11:15PM 38.9250 -77.8880 278° West 14,500 60 Climbing FlightAware
11:16PM 38.9370 -77.9910 279° West 16,800 60 Climbing FlightAware
11:17PM 38.9480 -78.0890 278° West 19,100  Climbing FlightAware
11:17PM 38.9580 -78.1830 278° West 21,100 -60 Climbing FlightAware
11:18PM 38.9640 -78.3000 274° West 23,300 -60 Climbing FlightAware
11:19PM 38.9670 -78.4050 272° West 25,000 -120 Climbing FlightAware
11:19PM 38.9700 -78.5100 272° West 26,600 -180 Climbing FlightAware
11:20PM 38.9730 -78.6300 272° West 28,300 -180 Climbing FlightAware
11:21PM 38.9760 -78.7400 272° West 30,300 -240 Climbing FlightAware
11:22PM 38.9790 -78.8430 272° West 31,800 -300 Climbing FlightAware
11:22PM 38.9820 -78.9600 272° West 33,200 -360 Climbing FlightAware
11:23PM 38.9840 -79.0670 271° West 34,400 -360 Climbing FlightAware
11:24PM 38.9870 -79.1840 272° West 35,400 -420 Climbing FlightAware
11:24PM 38.9890 -79.2870 271° West 36,000 -420 Climbing FlightAware
11:25PM 38.9920 -79.4050 272° West 36,000 -480 Level FlightAware
11:26PM 38.9940 -79.5110 271° West 36,000 -480 Level FlightAware
11:26PM 38.9960 -79.6130 271° West 36,000 -480 Level FlightAware
11:27PM 38.9980 -79.7300 271° West 36,000 -480 Level FlightAware
11:28PM 39.0000 -79.8310 271° West 36,000 -480 Level FlightAware
11:28PM 39.0020 -79.9250 272° West 36,000 -540 Level FlightAware
11:31PM 39.0080 -80.3280 271° West 36,000 -540 Level FlightAware
11:34PM 39.0990 -80.8100 284° West 36,000 -540 Level FlightAware
11:35PM 39.1250 -80.9040 290° West 36,000 -600 Level FlightAware
11:36PM 39.1520 -81.0050 289° West 36,000 -600 Level FlightAware
11:36PM 39.1810 -81.1140 289° West 35,900 -660 Descending FlightAware
11:37PM 39.2080 -81.2130 289° West 35,200 -660 Descending FlightAware
11:38PM 39.2390 -81.3270 289° West 34,400 -660 Descending FlightAware
11:38PM 39.2650 -81.4260 289° West 34,000 -660 Descending FlightAware
11:39PM 39.2910 -81.5250 289° West 34,000 -660 Level FlightAware
11:40PM 39.3200 -81.6330 289° West 34,000 -660 Level FlightAware
11:40PM 39.3450 -81.7310 288° West 34,000 -660 Level FlightAware
11:41PM 39.3760 -81.8470 289° West 34,000 -660 Level FlightAware
11:42PM 39.4020 -81.9490 288° West 34,000 -720 Level FlightAware
11:43PM 39.4280 -82.0470 289° West 34,000 -720 Level FlightAware
11:43PM 39.4570 -82.1600 288° West 34,000 -780 Level FlightAware
11:44PM 39.4830 -82.2620 288° West 34,000 -780 Level FlightAware
11:45PM 39.5140 -82.3790 289° West 34,000 -780 Level FlightAware
11:45PM 39.5400 -82.4830 288° West 34,000 -840 Level FlightAware
11:46PM 39.5660 -82.5840 288° West 34,000 -840 Level FlightAware
11:47PM 39.5930 -82.6930 288° West 34,000 -900 Level FlightAware
11:47PM 39.6200 -82.8000 288° West 34,000 -900 Level FlightAware
11:48PM 39.6470 -82.9060 288° West 34,000 -960 Level FlightAware
11:49PM 39.6760 -83.0230 288° West 34,000 -1,020 Level FlightAware
11:50PM 39.7010 -83.1250 288° West 34,000 -1,080 Level FlightAware
11:50PM 39.7270 -83.2270 288° West 34,000 -1,080 Level FlightAware
11:51PM 39.7560 -83.3450 288° West 34,000 -1,140 Level FlightAware
11:52PM 39.7850 -83.4650 287° West 34,000 -1,200 Level FlightAware
11:52PM 39.8090 -83.5660 287° West 34,000 -1,320 Level FlightAware
11:53PM 39.8480 -83.7250 288° West 33,900 -1,380 Descending FlightAware
11:54PM 39.8740 -83.8310 288° West 33,300 -1,500 Descending FlightAware
11:55PM 39.8990 -83.9350 287° West 32,500 -1,500 Descending FlightAware
11:55PM 39.9260 -84.0470 287° West 31,600 -1,560 Descending FlightAware
11:56PM 39.9500 -84.1490 287° West 30,700 -1,560 Descending FlightAware
11:57PM 39.9770 -84.2630 287° West 29,700 -1,560 Descending FlightAware
11:57PM 39.9960 -84.3440 287° West 29,000 -1,620 Descending FlightAware
11:58PM 40.0250 -84.4690 287° West 27,900 -1,620 Descending FlightAware
11:59PM 40.0470 -84.5620 287° West 27,100 -1,680 Descending FlightAware
12:00AM 40.0710 -84.6630 287° West 26,100 -1,740 Descending FlightAware
12:00AM 40.0940 -84.7660 286° West 25,100 -1,800 Descending FlightAware
12:01AM 40.1140 -84.8520 287° West 24,300 -1,860 Descending FlightAware
12:02AM 40.1200 -84.9760 274° West 22,800 -1,980 Descending FlightAware
12:03AM 40.1170 -85.1020 268° West 20,600 -2,160 Descending FlightAware
12:04AM 40.1142 -85.2139 268° West 350 403 18,600 -2,100 Descending Indianapolis Center
12:05AM 40.1108 -85.3350 268° West 335 386 16,500 -2,100 Descending Indianapolis Center
12:06AM 40.1075 -85.4536 268° West 327 376 14,400 -2,100 Descending Indianapolis Center
12:07AM 40.1028 -85.5672 267° West 316 364 12,300 -1,560 Descending Indianapolis Center
12:08AM 40.1008 -85.6753 269° West 303 349 11,300 -840 Descending Indianapolis Center
12:09AM 40.0481 -85.7297 218° Southwest 254 292 10,600 -1,140 Descending Indianapolis Center
12:10AM 39.9889 -85.7650 205° Southwest 235 270 9,000 -1,320 Descending Indianapolis Center
12:11AM 39.9231 -85.7681 182° South 236 272 8,000 -540 Descending Indianapolis Center
12:12AM 39.8681 -85.7694 181° South 210 242 8,000 -240 Level Indianapolis Center
12:13AM 39.8233 -85.8039 211° Southwest 184 212 7,600 -720 Descending Indianapolis Center
12:14AM 39.7914 -85.8408 222° Southwest 179 206 6,600 -720 Descending Indianapolis Center
12:15AM 39.7531 -85.8967 228° Southwest 177 204 6,200 -540 Descending Indianapolis Center
12:17AM 39.7167 -86.0167 249° West 193 222 5,000 -420 Descending Indianapolis TRACON
12:18AM 39.7333 -86.0833 288° West 214 246 5,000  Level Indianapolis TRACON
12:19AM 39.7833 -86.1000 346° North 245 282 5,000  Level Indianapolis TRACON
12:20AM 39.8167 -86.0167 62° Northeast 245 282 5,000  Level Indianapolis TRACON
12:21AM 39.8667 -85.9667 38° Northeast 248 285 5,000  Level Indianapolis TRACON
12:22AM 39.9000 -86.0000 323° Northwest 194 223 5,000 -300 Level Indianapolis TRACON
12:23AM 39.8833 -86.0667 252° West 170 196 4,500 -540 Descending Indianapolis TRACON
12:24AM 39.8667 -86.1000 237° Southwest 159 183 4,000 -480 Descending Indianapolis TRACON
12:25AM 39.8333 -86.1500 229° Southwest 165 190 3,600 -420 Descending Indianapolis TRACON